Time,TemperatureF,DewpointF,PressureIn,WindDirection,WindDirectionDegrees,WindSpeedMPH,WindSpeedGustMPH,Humidity,HourlyPrecipIn,Conditions,Clouds,dailyrainin,SoftwareType,DateUTC
2013-06-09 05:53:00,64.9,58.0,30.08,ESE,105,0.0,-999.0,78,-99.99,,,0.00,weatherlink.com 1.10,2013-06-09 09:53:00,
2013-06-09 06:05:00,64.9,58.0,30.07,East,97,1.0,-999.0,78,-99.99,,,0.00,weatherlink.com 1.10,2013-06-09 10:05:00,
2013-06-09 06:20:00,64.8,58.0,30.08,ESE,114,2.0,-999.0,79,-99.99,,,0.00,weatherlink.com 1.10,2013-06-09 10:20:00,
2013-06-09 06:35:00,64.9,59.0,30.09,ESE,110,1.0,-999.0,80,-99.99,,,0.00,weatherlink.com 1.10,2013-06-09 10:35:00,
2013-06-09 06:50:00,65.5,59.0,30.09,East,92,3.0,-999.0,80,-99.99,,,0.00,weatherlink.com 1.10,2013-06-09 10:50:00,
2013-06-09 07:05:00,66.0,60.0,30.09,ESE,107,1.0,-999.0,80,-99.99,,,0.00,weatherlink.com 1.10,2013-06-09 11:05:00,
2013-06-09 07:20:00,66.0,60.0,30.09,ESE,104,1.0,-999.0,81,-99.99,,,0.00,weatherlink.com 1.10,2013-06-09 11:20:00,
2013-06-09 07:35:00,66.1,60.0,30.09,East,94,3.0,-999.0,81,-99.99,,,0.00,weatherlink.com 1.10,2013-06-09 11:35:00,
2013-06-09 07:50:00,66.3,61.0,30.09,East,83,1.0,-999.0,82,-99.99,,,0.00,weatherlink.com 1.10,2013-06-09 11:50:00,
2013-06-09 08:05:00,66.3,61.0,30.09,East,95,5.0,-999.0,82,-99.99,,,0.00,weatherlink.com 1.10,2013-06-09 12:05:00,
2013-06-09 08:20:00,66.4,61.0,30.09,ESE,117,3.0,-999.0,82,-99.99,,,0.00,weatherlink.com 1.10,2013-06-09 12:20:00,
2013-06-09 08:35:00,66.9,61.0,30.09,ENE,77,3.0,-999.0,82,-99.99,,,0.00,weatherlink.com 1.10,2013-06-09 12:35:00,
2013-06-09 08:50:00,67.1,61.0,30.09,ENE,76,7.0,-999.0,81,-99.99,,,0.00,weatherlink.com 1.10,2013-06-09 12:50:00,
2013-06-09 09:05:00,67.3,61.0,30.09,East,96,5.0,-999.0,81,-99.99,,,0.00,weatherlink.com 1.10,2013-06-09 13:05:00,
2013-06-09 09:20:00,67.3,61.0,30.09,East,84,6.0,-999.0,81,-99.99,,,0.00,weatherlink.com 1.10,2013-06-09 13:20:00,
2013-06-09 09:35:00,67.9,62.0,30.09,East,92,6.0,-999.0,80,-99.99,,,0.00,weatherlink.com 1.10,2013-06-09 13:35:00,
2013-06-09 09:50:00,68.2,61.0,30.10,ESE,109,5.0,-999.0,79,-99.99,,,0.00,weatherlink.com 1.10,2013-06-09 13:50:00,
2013-06-09 10:05:00,68.3,62.0,30.09,East,94,8.0,-999.0,79,-99.99,,,0.00,weatherlink.com 1.10,2013-06-09 14:05:00,
2013-06-09 13:25:00,68.5,61.0,30.07,ESE,120,5.0,-999.0,77,-99.99,,,0.00,weatherlink.com 1.10,2013-06-09 17:25:00,
2013-06-09 13:35:00,68.3,61.0,30.06,ESE,104,7.0,-999.0,78,-99.99,,,0.00,weatherlink.com 1.10,2013-06-09 17:35:00,
2013-06-09 13:50:00,67.5,62.0,30.06,East,90,6.0,-999.0,81,-99.99,,,0.00,weatherlink.com 1.10,2013-06-09 17:50:00,
2013-06-09 14:05:00,69.0,62.0,30.05,ENE,78,11.0,-999.0,78,-99.99,,,0.00,weatherlink.com 1.10,2013-06-09 18:05:00,
2013-06-09 14:20:00,70.6,62.0,30.04,ENE,74,17.0,-999.0,75,-99.99,,,0.00,weatherlink.com 1.10,2013-06-09 18:20:00,
2013-06-09 14:37:00,72.0,62.0,30.03,ENE,75,11.0,-999.0,71,-99.99,,,0.00,weatherlink.com 1.10,2013-06-09 18:37:00,
2013-06-09 14:52:00,73.0,62.0,30.03,ESE,107,11.0,-999.0,68,-99.99,,,0.00,weatherlink.com 1.10,2013-06-09 18:52:00,
2013-06-09 15:21:00,72.4,61.0,30.02,ENE,78,9.0,-999.0,67,-99.99,,,0.00,weatherlink.com 1.10,2013-06-09 19:21:00,
2013-06-09 15:47:00,72.9,62.0,30.01,East,79,13.0,-999.0,68,-99.99,,,0.00,weatherlink.com 1.10,2013-06-09 19:47:00,
2013-06-09 16:06:00,72.6,61.0,30.00,ENE,77,9.0,-999.0,66,-99.99,,,0.00,weatherlink.com 1.10,2013-06-09 20:06:00,
2013-06-09 16:21:00,72.6,61.0,29.99,SE,124,4.0,-999.0,67,-99.99,,,0.00,weatherlink.com 1.10,2013-06-09 20:21:00,
2013-06-09 16:36:00,72.2,60.0,29.98,East,86,13.0,-999.0,66,-99.99,,,0.00,weatherlink.com 1.10,2013-06-09 20:36:00,
2013-06-09 16:51:00,72.8,60.0,29.98,East,90,10.0,-999.0,64,-99.99,,,0.00,weatherlink.com 1.10,2013-06-09 20:51:00,
2013-06-09 17:06:00,73.4,59.0,29.98,ESE,105,10.0,-999.0,62,-99.99,,,0.00,weatherlink.com 1.10,2013-06-09 21:06:00,
2013-06-09 17:21:00,73.1,60.0,29.98,NE,51,8.0,-999.0,63,-99.99,,,0.00,weatherlink.com 1.10,2013-06-09 21:21:00,
2013-06-09 17:36:00,72.6,60.0,29.97,East,94,7.0,-999.0,65,-99.99,,,0.00,weatherlink.com 1.10,2013-06-09 21:36:00,
2013-06-09 17:51:00,72.3,60.0,29.98,East,96,15.0,-999.0,65,-99.99,,,0.00,weatherlink.com 1.10,2013-06-09 21:51:00,
2013-06-09 18:06:00,72.3,59.0,29.97,East,93,15.0,-999.0,64,-99.99,,,0.00,weatherlink.com 1.10,2013-06-09 22:06:00,
2013-06-09 18:21:00,72.2,60.0,29.97,ESE,110,10.0,-999.0,65,-99.99,,,0.00,weatherlink.com 1.10,2013-06-09 22:21:00,
2013-06-09 18:36:00,72.1,61.0,29.97,ESE,113,11.0,-999.0,67,-99.99,,,0.00,weatherlink.com 1.10,2013-06-09 22:36:00,
2013-06-09 18:51:00,71.6,60.0,29.96,ESE,102,10.0,-999.0,67,-99.99,,,0.00,weatherlink.com 1.10,2013-06-09 22:51:00,
2013-06-09 19:06:00,70.8,60.0,29.96,East,91,14.0,-999.0,69,-99.99,,,0.00,weatherlink.com 1.10,2013-06-09 23:06:00,
2013-06-09 19:21:00,70.1,60.0,29.96,East,93,8.0,-999.0,70,-99.99,,,0.00,weatherlink.com 1.10,2013-06-09 23:21:00,
2013-06-09 19:36:00,69.8,60.0,29.95,East,92,8.0,-999.0,70,-99.99,,,0.00,weatherlink.com 1.10,2013-06-09 23:36:00,
2013-06-09 19:51:00,69.3,59.0,29.96,SE,142,6.0,-999.0,70,-99.99,,,0.00,weatherlink.com 1.10,2013-06-09 23:51:00,
2013-06-09 20:06:00,68.8,58.0,29.96,East,96,15.0,-999.0,69,-99.99,,,0.00,weatherlink.com 1.10,2013-06-10 00:06:00,
2013-06-09 20:21:00,68.6,58.0,29.96,ESE,114,8.0,-999.0,69,-99.99,,,0.00,weatherlink.com 1.10,2013-06-10 00:21:00,
2013-06-09 20:36:00,68.4,58.0,29.96,ESE,121,12.0,-999.0,69,-99.99,,,0.00,weatherlink.com 1.10,2013-06-10 00:36:00,
2013-06-09 20:51:00,68.1,58.0,29.95,East,93,5.0,-999.0,70,-99.99,,,0.00,weatherlink.com 1.10,2013-06-10 00:51:00,
2013-06-09 21:06:00,67.9,58.0,29.96,ESE,113,6.0,-999.0,71,-99.99,,,0.00,weatherlink.com 1.10,2013-06-10 01:06:00,
2013-06-09 21:21:00,67.5,58.0,29.95,East,96,8.0,-999.0,72,-99.99,,,0.00,weatherlink.com 1.10,2013-06-10 01:21:00,
2013-06-09 21:36:00,67.2,58.0,29.95,SE,131,4.0,-999.0,73,-99.99,,,0.00,weatherlink.com 1.10,2013-06-10 01:36:00,
2013-06-09 21:51:00,67.1,59.0,29.95,ENE,77,8.0,-999.0,74,-99.99,,,0.00,weatherlink.com 1.10,2013-06-10 01:51:00,
2013-06-09 22:06:00,66.9,59.0,29.95,East,85,9.0,-999.0,76,-99.99,,,0.00,weatherlink.com 1.10,2013-06-10 02:06:00,
2013-06-09 22:21:00,67.1,60.0,29.96,ESE,115,7.0,-999.0,77,-99.99,,,0.00,weatherlink.com 1.10,2013-06-10 02:21:00,
2013-06-09 22:36:00,66.8,61.0,29.97,East,95,8.0,-999.0,81,-99.99,,,0.00,weatherlink.com 1.10,2013-06-10 02:36:00,
2013-06-09 22:51:00,66.3,61.0,29.96,East,100,3.0,-999.0,84,-99.99,,,0.00,weatherlink.com 1.10,2013-06-10 02:51:00,
2013-06-09 23:06:00,65.8,62.0,29.96,ESE,103,6.0,-999.0,86,-99.99,,,0.01,weatherlink.com 1.10,2013-06-10 03:06:00,
2013-06-09 23:21:00,65.5,62.0,29.95,East,95,4.0,-999.0,88,-99.99,,,0.02,weatherlink.com 1.10,2013-06-10 03:21:00,
2013-06-09 23:36:00,65.5,62.0,29.94,East,91,4.0,-999.0,89,-99.99,,,0.02,weatherlink.com 1.10,2013-06-10 03:36:00,
2013-06-09 23:51:00,65.5,63.0,29.94,ENE,77,3.0,-999.0,91,-99.99,,,0.08,weatherlink.com 1.10,2013-06-10 03:51:00,